createdAt,value
2023-04-05T00:02:18.739Z,107.38
2023-04-05T00:04:50.723Z,95.50
2023-04-05T00:07:19.080Z,94.72
2023-04-05T00:09:46.175Z,94.80
2023-04-05T00:12:12.988Z,95.68
2023-04-05T00:14:39.604Z,95.47
2023-04-05T00:17:06.372Z,96.55
2023-04-05T00:19:33.956Z,95.43
2023-04-05T00:22:00.848Z,94.38
2023-04-05T00:24:29.401Z,94.25
2023-04-05T00:26:56.781Z,95.97
2023-04-05T00:29:23.451Z,95.25
2023-04-05T00:31:50.409Z,93.95
2023-04-05T00:34:17.059Z,94.85
2023-04-05T00:36:43.694Z,94.88
2023-04-05T00:39:10.307Z,94.88
2023-04-05T00:41:37.056Z,96.03
2023-04-05T00:44:04.054Z,95.63
2023-04-05T00:46:34.724Z,96.75
2023-04-05T00:49:01.476Z,95.18
2023-04-05T00:51:29.284Z,96.13
2023-04-05T00:53:56.083Z,94.53
2023-04-05T00:56:23.076Z,95.32
2023-04-05T00:58:53.265Z,97.45
2023-04-05T01:01:22.411Z,96.18
2023-04-05T01:04:11.354Z,94.60
2023-04-05T01:06:57.805Z,95.57
2023-04-05T01:09:57.569Z,93.88
2023-04-05T01:12:28.207Z,98.00
2023-04-05T01:14:55.823Z,95.57
2023-04-05T01:17:24.735Z,101.30
2023-04-05T01:20:08.929Z,97.18
2023-04-05T01:23:02.474Z,94.72
2023-04-05T01:25:36.998Z,99.30
2023-04-05T01:28:29.356Z,96.72
2023-04-05T01:31:06.922Z,96.55
2023-04-05T01:33:48.640Z,95.72
2023-04-05T01:36:37.104Z,95.97
2023-04-05T01:39:05.847Z,96.18
2023-04-05T01:41:32.926Z,95.97
2023-04-05T01:43:59.570Z,96.10
2023-04-05T01:46:26.489Z,96.22
2023-04-05T01:48:53.136Z,97.00
2023-04-05T01:51:21.008Z,94.65
2023-04-05T01:53:47.695Z,99.30
2023-04-05T01:56:14.350Z,94.68
2023-04-05T01:58:40.978Z,96.32
2023-04-05T02:01:07.746Z,95.72
2023-04-05T02:03:34.521Z,95.68
2023-04-05T02:06:01.441Z,96.38
2023-04-05T02:08:28.047Z,96.32
2023-04-05T02:10:54.709Z,95.47
2023-04-05T02:13:22.186Z,98.45
2023-04-05T02:15:50.222Z,96.97
2023-04-05T02:18:22.160Z,96.70
2023-04-05T02:20:52.123Z,96.22
2023-04-05T02:23:19.618Z,97.35
2023-04-05T02:25:46.462Z,95.47
2023-04-05T02:28:13.076Z,95.28
2023-04-05T02:30:40.113Z,96.57
2023-04-05T02:33:09.522Z,100.72
2023-04-05T02:35:36.555Z,99.85
2023-04-05T02:38:04.725Z,98.50
2023-04-05T02:40:32.035Z,98.63
2023-04-05T02:42:58.971Z,99.95
2023-04-05T02:45:27.799Z,99.60
2023-04-05T02:47:55.424Z,99.82
2023-04-05T02:50:23.395Z,98.65
2023-04-05T02:52:50.688Z,97.15
2023-04-05T02:55:17.345Z,96.97
2023-04-05T02:57:46.463Z,96.72
2023-04-05T03:00:14.219Z,96.28
2023-04-05T03:02:40.918Z,97.38
2023-04-05T03:05:09.213Z,98.07
2023-04-05T03:07:35.838Z,97.07
2023-04-05T03:10:03.075Z,96.97
2023-04-05T03:12:29.683Z,97.10
2023-04-05T03:14:56.328Z,97.10
2023-04-05T03:17:22.987Z,98.18
2023-04-05T03:19:49.623Z,101.15
2023-04-05T03:22:16.422Z,99.40
2023-04-05T03:24:43.395Z,97.57
2023-04-05T03:27:09.993Z,98.38
2023-04-05T03:29:36.574Z,97.20
2023-04-05T03:32:03.180Z,97.20
2023-04-05T03:34:29.783Z,104.60
2023-04-05T03:36:56.388Z,96.93
2023-04-05T03:39:23.074Z,102.03
2023-04-05T03:41:49.735Z,98.85
2023-04-05T03:44:16.378Z,97.57
2023-04-05T03:46:43.976Z,96.25
2023-04-05T03:49:10.829Z,103.85
2023-04-05T03:51:37.426Z,96.38
2023-04-05T03:54:04.170Z,97.53
2023-04-05T03:56:32.020Z,97.93
2023-04-05T03:58:58.700Z,96.68
2023-04-05T04:01:25.728Z,100.63
2023-04-05T04:03:52.302Z,99.18
2023-04-05T04:06:19.626Z,97.47
2023-04-05T04:08:46.452Z,98.50
2023-04-05T04:11:13.145Z,97.93
2023-04-05T04:13:39.706Z,99.85
2023-04-05T04:16:06.466Z,98.03
2023-04-05T04:18:33.216Z,101.00
2023-04-05T04:21:06.708Z,101.07
2023-04-05T04:23:34.599Z,97.43
2023-04-05T04:26:01.723Z,97.50
2023-04-05T04:28:29.452Z,100.00
2023-04-05T04:30:56.108Z,99.15
2023-04-05T04:33:22.790Z,97.32
2023-04-05T04:35:49.453Z,96.10
2023-04-05T04:38:18.967Z,97.05
2023-04-05T04:40:50.836Z,99.15
2023-04-05T04:43:17.626Z,97.25
2023-04-05T04:45:48.351Z,96.97
2023-04-05T04:48:16.679Z,96.22
2023-04-05T04:50:44.164Z,99.43
2023-04-05T04:53:11.852Z,98.75
2023-04-05T04:55:42.270Z,98.95
2023-04-05T04:58:11.521Z,99.93
2023-04-05T05:00:44.184Z,98.93
2023-04-05T05:03:11.934Z,97.85
2023-04-05T05:05:45.645Z,96.90
2023-04-05T05:08:13.155Z,101.43
2023-04-05T05:10:40.423Z,98.93
2023-04-05T05:13:07.182Z,97.47
2023-04-05T05:15:33.918Z,99.82
2023-04-05T05:18:00.580Z,101.60
2023-04-05T05:20:28.632Z,98.53
2023-04-05T05:22:55.974Z,99.18
2023-04-05T05:25:22.749Z,100.25
2023-04-05T05:27:51.025Z,100.05
2023-04-05T05:30:18.495Z,101.00
2023-04-05T05:32:45.150Z,96.53
2023-04-05T05:35:11.789Z,100.43
2023-04-05T05:37:38.905Z,99.30
2023-04-05T05:40:06.225Z,103.25
2023-04-05T05:42:33.958Z,99.70
2023-04-05T05:45:04.464Z,100.18
2023-04-05T05:47:31.487Z,96.95
2023-04-05T05:49:58.204Z,100.32
2023-04-05T05:52:24.985Z,96.88
2023-04-05T05:54:51.880Z,98.07
2023-04-05T05:57:18.501Z,96.28
2023-04-05T05:59:45.464Z,97.05
2023-04-05T06:02:13.098Z,105.90
2023-04-05T06:04:39.773Z,95.07
2023-04-05T06:07:06.569Z,95.47
2023-04-05T06:09:35.357Z,96.85
2023-04-05T06:12:02.224Z,94.90
2023-04-05T06:14:31.767Z,95.90
2023-04-05T06:16:58.510Z,96.05
2023-04-05T06:19:25.419Z,98.85
2023-04-05T06:21:52.172Z,94.65
2023-04-05T06:24:18.768Z,94.78
2023-04-05T06:26:45.411Z,94.65
2023-04-05T06:29:12.161Z,94.70
2023-04-05T06:31:38.845Z,93.63
2023-04-05T06:34:05.855Z,95.93
2023-04-05T06:36:33.956Z,103.03
2023-04-05T06:39:00.931Z,97.18
2023-04-05T06:41:27.784Z,93.43
2023-04-05T06:43:56.283Z,93.30
2023-04-05T06:46:23.575Z,94.60
2023-04-05T06:48:51.597Z,92.55
2023-04-05T06:51:18.781Z,92.43
2023-04-05T06:53:45.427Z,95.15
2023-04-05T06:56:12.344Z,91.05
2023-04-05T06:58:39.045Z,91.85
2023-04-05T07:01:06.594Z,93.30
2023-04-05T07:03:34.035Z,93.13
2023-04-05T07:06:01.108Z,92.00
2023-04-05T07:08:29.187Z,92.43
2023-04-05T07:10:56.044Z,90.65
2023-04-05T07:13:24.497Z,91.60
2023-04-05T07:15:51.932Z,90.90
2023-04-05T07:18:20.360Z,88.97
2023-04-05T07:20:49.182Z,87.93
2023-04-05T07:23:16.428Z,90.30
2023-04-05T07:25:43.203Z,87.80
2023-04-05T07:28:09.860Z,89.25
2023-04-05T07:30:36.966Z,87.70
2023-04-05T07:33:03.957Z,87.53
2023-04-05T07:35:30.717Z,86.03
2023-04-05T07:37:57.400Z,84.07
2023-04-05T07:40:24.119Z,87.90
2023-04-05T07:42:50.790Z,86.07
2023-04-05T07:45:17.463Z,87.37
2023-04-05T07:47:44.143Z,83.97
2023-04-05T07:50:14.877Z,84.37
2023-04-05T07:52:42.057Z,84.10
2023-04-05T07:55:09.664Z,83.70
2023-04-05T07:57:36.396Z,83.57
2023-04-05T08:00:04.880Z,87.07
2023-04-05T08:02:31.598Z,84.67
2023-04-05T08:04:58.281Z,83.10
2023-04-05T08:07:25.291Z,82.97
2023-04-05T08:09:53.570Z,82.20
2023-04-05T08:12:20.378Z,84.30
2023-04-05T08:14:47.037Z,86.53
2023-04-05T08:17:14.758Z,82.67
2023-04-05T08:19:41.362Z,84.30
2023-04-05T08:22:07.954Z,82.90
2023-04-05T08:24:34.757Z,84.20
2023-04-05T08:27:01.438Z,85.80
2023-04-05T08:29:28.042Z,82.77
2023-04-05T08:31:57.938Z,84.30
2023-04-05T08:34:24.680Z,82.50
2023-04-05T08:36:51.286Z,82.60
2023-04-05T08:39:17.949Z,84.57
2023-04-05T08:41:57.088Z,83.50
2023-04-05T08:44:26.684Z,83.00
2023-04-05T08:46:55.334Z,82.87
2023-04-05T08:49:22.021Z,82.67
2023-04-05T08:51:48.822Z,81.47
2023-04-05T08:54:15.555Z,85.17
2023-04-05T08:56:42.870Z,82.77
2023-04-05T08:59:15.710Z,84.00
2023-04-05T09:01:44.733Z,83.30
2023-04-05T09:04:28.082Z,83.80
2023-04-05T09:06:58.864Z,83.73
2023-04-05T09:09:26.213Z,85.17
2023-04-05T09:11:53.091Z,83.03
2023-04-05T09:14:20.811Z,84.23
2023-04-05T09:16:47.469Z,86.80
2023-04-05T09:19:14.684Z,85.47
2023-04-05T09:22:06.345Z,86.70
2023-04-05T09:24:33.342Z,85.10
2023-04-05T09:27:16.431Z,85.60
2023-04-05T09:29:47.315Z,85.25
2023-04-05T09:32:15.660Z,85.63
2023-04-05T09:34:43.612Z,87.00
2023-04-05T09:37:19.121Z,89.60
2023-04-05T09:39:49.227Z,86.10
2023-04-05T09:42:17.990Z,86.30
2023-04-05T09:45:05.659Z,84.70
2023-04-05T09:47:35.051Z,87.50
2023-04-05T09:50:06.156Z,87.80
2023-04-05T09:52:33.536Z,85.63
2023-04-05T09:55:06.747Z,89.90
2023-04-05T09:57:41.273Z,87.63
2023-04-05T10:00:19.331Z,87.07
2023-04-05T10:02:51.940Z,88.15
2023-04-05T10:05:18.610Z,87.68
2023-04-05T10:07:45.973Z,88.25
2023-04-05T10:10:13.667Z,87.45
2023-04-05T10:12:41.790Z,86.80
2023-04-05T10:15:09.344Z,91.22
2023-04-05T10:18:10.367Z,92.53
2023-04-05T10:20:41.451Z,88.68
2023-04-05T10:23:10.305Z,88.10
2023-04-05T10:25:39.596Z,89.90
2023-04-05T10:28:11.578Z,90.10
2023-04-05T10:30:47.078Z,88.97
2023-04-05T10:33:22.146Z,89.95
2023-04-05T10:36:09.711Z,88.07
2023-04-05T10:38:57.314Z,87.88
2023-04-05T10:41:26.258Z,90.93
2023-04-05T10:43:57.089Z,89.20
2023-04-05T10:46:24.698Z,88.93
2023-04-05T10:49:29.738Z,86.93
2023-04-05T10:51:56.460Z,87.85
2023-04-05T10:54:23.867Z,88.07
2023-04-05T10:56:51.076Z,89.78
2023-04-05T10:59:18.488Z,88.85
2023-04-05T11:01:46.522Z,88.68
2023-04-05T11:04:17.635Z,91.88
2023-04-05T11:06:47.935Z,89.70
2023-04-05T11:09:20.314Z,91.70
2023-04-05T11:11:52.193Z,86.93
2023-04-05T11:14:25.585Z,87.43
2023-04-05T11:16:56.750Z,88.93
2023-04-05T11:19:45.275Z,91.50
2023-04-05T11:22:15.640Z,88.75
2023-04-05T11:24:58.304Z,92.03
2023-04-05T11:27:29.980Z,90.80
2023-04-05T11:30:01.392Z,87.78
2023-04-05T11:32:45.452Z,90.63
2023-04-05T11:35:15.735Z,86.00
2023-04-05T11:37:56.186Z,92.22
2023-04-05T11:40:36.961Z,88.10
2023-04-05T11:43:09.251Z,87.13
2023-04-05T11:45:41.797Z,87.13
2023-04-05T11:48:13.291Z,86.95
2023-04-05T11:50:45.121Z,88.45
2023-04-05T11:53:16.105Z,91.93
2023-04-05T11:55:46.130Z,88.65
2023-04-05T11:58:24.017Z,86.78
2023-04-05T12:01:01.819Z,87.90
2023-04-05T12:03:29.945Z,87.93
2023-04-05T12:06:00.122Z,88.00
2023-04-05T12:08:49.827Z,88.53
2023-04-05T12:11:23.758Z,85.75
2023-04-05T12:13:55.640Z,91.32
2023-04-05T12:16:22.321Z,88.63
2023-04-05T12:18:59.349Z,88.45
2023-04-05T12:21:27.536Z,87.77
2023-04-05T12:23:54.602Z,87.03
2023-04-05T12:26:22.227Z,87.07
2023-04-05T12:28:53.178Z,86.47
2023-04-05T12:31:39.353Z,89.32
2023-04-05T12:34:06.627Z,84.47
2023-04-05T12:36:33.462Z,88.07
2023-04-05T12:39:01.063Z,86.53
2023-04-05T12:41:31.526Z,84.77
2023-04-05T12:44:01.647Z,86.40
2023-04-05T12:46:44.793Z,84.80
2023-04-05T12:49:18.582Z,87.07
2023-04-05T12:51:46.527Z,87.22
2023-04-05T12:54:23.308Z,85.75
2023-04-05T12:56:54.619Z,85.47
2023-04-05T12:59:22.445Z,87.90
2023-04-05T13:01:49.678Z,88.43
2023-04-05T13:04:18.662Z,84.68
2023-04-05T13:06:47.660Z,86.40
2023-04-05T13:09:14.638Z,86.18
2023-04-05T13:11:41.328Z,85.60
2023-04-05T13:14:08.505Z,87.05
2023-04-05T13:16:35.335Z,85.03
2023-04-05T13:19:02.017Z,86.82
2023-04-05T13:21:28.786Z,85.85
2023-04-05T13:23:55.381Z,85.53
2023-04-05T13:26:22.125Z,85.03
2023-04-05T13:28:48.783Z,86.18
2023-04-05T13:31:16.169Z,86.57
2023-04-05T13:33:43.545Z,87.63
2023-04-05T13:36:12.318Z,85.43
2023-04-05T13:38:39.423Z,86.65
2023-04-05T13:41:06.166Z,86.18
2023-04-05T13:43:32.806Z,88.28
2023-04-05T13:45:59.612Z,85.90
2023-04-05T13:48:26.299Z,89.82
2023-04-05T13:50:52.999Z,94.50
2023-04-05T13:53:19.779Z,85.95
2023-04-05T13:55:46.401Z,87.82
2023-04-05T13:58:14.323Z,85.72
2023-04-05T14:00:41.428Z,88.10
2023-04-05T14:03:08.522Z,87.22
2023-04-05T14:05:35.414Z,86.47
2023-04-05T14:08:02.082Z,87.75
2023-04-05T14:10:28.695Z,89.28
2023-04-05T14:12:55.304Z,91.63
2023-04-05T14:15:21.952Z,88.28
2023-04-05T14:17:48.645Z,88.00
2023-04-05T14:20:15.329Z,88.47
2023-04-05T14:22:42.070Z,88.88
2023-04-05T14:25:09.177Z,88.75
2023-04-05T14:27:37.635Z,88.63
2023-04-05T14:30:04.683Z,88.60
2023-04-05T14:32:33.794Z,88.05
2023-04-05T14:35:00.727Z,90.85
2023-04-05T14:37:27.456Z,88.03
2023-04-05T14:39:54.063Z,90.57
2023-04-05T14:42:21.602Z,87.88
2023-04-05T14:44:48.223Z,88.13
2023-04-05T14:47:14.910Z,89.38
2023-04-05T14:49:41.562Z,87.88
2023-04-05T14:52:08.191Z,88.82
2023-04-05T14:54:34.886Z,88.88
2023-04-05T14:57:01.582Z,93.60
2023-04-05T14:59:28.346Z,89.43
2023-04-05T15:01:55.441Z,90.35
2023-04-05T15:04:22.276Z,88.22
2023-04-05T15:06:48.984Z,88.07
2023-04-05T15:09:15.661Z,90.07
2023-04-05T15:11:42.353Z,89.60
2023-04-05T15:14:13.375Z,88.78
2023-04-05T15:16:47.954Z,88.90
2023-04-05T15:19:14.622Z,88.47
2023-04-05T15:21:41.637Z,92.88
2023-04-05T15:24:08.380Z,90.88
2023-04-05T15:26:35.000Z,89.30
2023-04-05T15:29:01.574Z,88.82
2023-04-05T15:31:28.252Z,89.82
2023-04-05T15:33:54.945Z,92.80
2023-04-05T15:36:21.535Z,89.82
2023-04-05T15:38:48.135Z,89.97
2023-04-05T15:41:14.741Z,92.75
2023-04-05T15:43:41.356Z,89.10
2023-04-05T15:46:08.070Z,91.53
2023-04-05T15:48:34.732Z,92.88
2023-04-05T15:51:01.423Z,90.88
2023-04-05T15:53:28.383Z,91.95
2023-04-05T15:55:55.143Z,93.93
2023-04-05T15:58:21.792Z,93.45
2023-04-05T16:00:48.378Z,89.80
2023-04-05T16:03:15.097Z,91.35
2023-04-05T16:05:41.870Z,91.60
2023-04-05T16:08:08.503Z,90.28
2023-04-05T16:10:35.228Z,90.50
2023-04-05T16:13:01.921Z,89.82
2023-04-05T16:15:28.535Z,90.72
2023-04-05T16:17:55.274Z,89.82
2023-04-05T16:20:23.517Z,89.03
2023-04-05T16:22:51.479Z,90.53
2023-04-05T16:25:18.300Z,93.38
2023-04-05T16:27:44.942Z,98.15
2023-04-05T16:30:11.960Z,92.03
2023-04-05T16:32:38.692Z,89.57
2023-04-05T16:35:05.897Z,90.57
2023-04-05T16:37:32.554Z,90.50
2023-04-05T16:39:59.356Z,91.20
2023-04-05T16:42:26.209Z,89.18
2023-04-05T16:44:52.902Z,91.43
2023-04-05T16:47:19.526Z,93.50
2023-04-05T16:49:46.125Z,94.30
2023-04-05T16:52:12.832Z,93.07
2023-04-05T16:54:39.422Z,92.18
2023-04-05T16:57:06.228Z,92.55
2023-04-05T16:59:32.953Z,92.43
2023-04-05T17:01:59.721Z,90.82
2023-04-05T17:04:26.405Z,91.72
2023-04-05T17:06:53.165Z,91.22
2023-04-05T17:09:19.899Z,92.55
2023-04-05T17:11:46.813Z,91.97
2023-04-05T17:14:13.449Z,91.28
2023-04-05T17:16:40.848Z,91.90
2023-04-05T17:19:07.462Z,94.20
2023-04-05T17:21:35.451Z,92.95
2023-04-05T17:24:02.102Z,93.03
2023-04-05T17:26:29.653Z,93.43
2023-04-05T17:28:56.436Z,94.93
2023-04-05T17:31:23.164Z,92.15
2023-04-05T17:33:49.844Z,93.35
2023-04-05T17:36:19.751Z,95.93
2023-04-05T17:38:46.371Z,92.18
2023-04-05T17:41:13.113Z,94.60
2023-04-05T17:43:39.888Z,95.63
2023-04-05T17:46:06.764Z,92.82
2023-04-05T17:48:33.437Z,94.85
2023-04-05T17:51:05.300Z,94.55
2023-04-05T17:53:32.013Z,94.07
2023-04-05T17:55:58.704Z,92.43
2023-04-05T17:58:25.468Z,96.07
2023-04-05T18:00:52.261Z,95.03
2023-04-05T18:03:19.323Z,93.47
2023-04-05T18:05:54.718Z,94.45
2023-04-05T18:08:22.624Z,93.75
2023-04-05T18:10:54.608Z,96.50
2023-04-05T18:13:21.307Z,93.88
2023-04-05T18:15:55.026Z,92.88
2023-04-05T18:18:22.360Z,95.03
2023-04-05T18:20:53.066Z,95.40
2023-04-05T18:23:24.943Z,93.43
2023-04-05T18:25:52.889Z,92.85
2023-04-05T18:28:22.669Z,93.30
2023-04-05T18:30:51.061Z,92.55
2023-04-05T18:33:18.264Z,94.15
2023-04-05T18:35:51.881Z,95.18
2023-04-05T18:38:19.434Z,93.47
2023-04-05T18:40:46.398Z,94.75
2023-04-05T18:43:13.425Z,93.47
2023-04-05T18:45:40.256Z,97.57
2023-04-05T18:48:07.027Z,93.63
2023-04-05T18:50:34.899Z,92.75
2023-04-05T18:53:02.249Z,92.93
2023-04-05T18:55:28.864Z,94.57
2023-04-05T18:57:55.577Z,95.63
2023-04-05T19:00:22.276Z,96.65
2023-04-05T19:02:49.002Z,93.70
2023-04-05T19:05:15.768Z,92.88
2023-04-05T19:07:42.430Z,94.47
2023-04-05T19:10:09.546Z,92.60
2023-04-05T19:12:36.191Z,93.63
2023-04-05T19:15:02.958Z,93.43
2023-04-05T19:17:29.690Z,93.35
2023-04-05T19:19:56.339Z,94.78
2023-04-05T19:22:23.054Z,93.68
2023-04-05T19:24:49.661Z,93.22
2023-04-05T19:27:17.301Z,99.45
2023-04-05T19:29:43.918Z,102.03
2023-04-05T19:32:10.578Z,96.15
2023-04-05T19:34:38.409Z,108.30
2023-04-05T19:37:05.322Z,110.25
2023-04-05T19:39:33.561Z,104.00
2023-04-05T19:42:00.251Z,95.45
2023-04-05T19:44:57.961Z,95.10
2023-04-05T19:47:25.890Z,93.88
2023-04-05T19:49:55.885Z,93.60
2023-04-05T19:52:46.881Z,95.88
2023-04-05T19:55:44.919Z,92.97
2023-04-05T19:58:11.806Z,94.90
2023-04-05T20:00:52.630Z,93.53
2023-04-05T20:03:33.407Z,96.38
2023-04-05T20:06:14.322Z,93.30
2023-04-05T20:08:46.820Z,96.28
2023-04-05T20:11:18.779Z,97.05
2023-04-05T20:13:49.215Z,96.68
2023-04-05T20:16:17.359Z,94.10
2023-04-05T20:18:48.368Z,94.57
2023-04-05T20:21:16.136Z,94.13
2023-04-05T20:23:44.190Z,95.70
2023-04-05T20:26:15.956Z,93.97
2023-04-05T20:28:53.888Z,94.28
2023-04-05T20:31:29.431Z,93.65
2023-04-05T20:34:14.063Z,97.97
2023-04-05T20:36:47.329Z,95.28
2023-04-05T20:39:13.972Z,95.38
2023-04-05T20:41:40.692Z,95.70
2023-04-05T20:44:07.614Z,92.82
2023-04-05T20:46:34.661Z,94.22
2023-04-05T20:49:01.519Z,93.82
2023-04-05T20:51:28.205Z,94.18
2023-04-05T20:53:55.424Z,93.82
2023-04-05T20:56:22.200Z,95.63
2023-04-05T20:58:48.910Z,95.28
2023-04-05T21:01:15.620Z,99.53
2023-04-05T21:03:42.829Z,95.13
2023-04-05T21:06:10.303Z,95.32
2023-04-05T21:08:38.719Z,93.85
2023-04-05T21:11:06.618Z,95.93
2023-04-05T21:13:33.598Z,94.53
2023-04-05T21:16:00.333Z,94.40
2023-04-05T21:18:27.116Z,94.78
2023-04-05T21:20:54.289Z,98.75
2023-04-05T21:23:28.648Z,95.57
2023-04-05T21:25:56.411Z,94.43
2023-04-05T21:28:24.358Z,95.80
2023-04-05T21:30:51.460Z,96.30
2023-04-05T21:33:18.668Z,94.78
2023-04-05T21:35:45.404Z,94.72
2023-04-05T21:38:14.229Z,95.13
2023-04-05T21:40:42.462Z,93.53
2023-04-05T21:43:09.063Z,95.68
2023-04-05T21:45:35.732Z,93.78
2023-04-05T21:48:02.372Z,93.65
2023-04-05T21:50:29.071Z,96.60
2023-04-05T21:52:55.687Z,93.53
2023-04-05T21:55:22.340Z,95.30
2023-04-05T21:57:48.967Z,95.30
2023-04-05T22:00:15.717Z,96.63
2023-04-05T22:02:42.577Z,93.68
2023-04-05T22:05:09.840Z,93.78
2023-04-05T22:07:36.635Z,95.28
2023-04-05T22:10:03.966Z,94.63
2023-04-05T22:12:30.694Z,94.35
2023-04-05T22:14:57.415Z,95.25
2023-04-05T22:17:24.109Z,95.18
2023-04-05T22:19:50.933Z,94.43
2023-04-05T22:22:17.665Z,94.03
2023-04-05T22:24:44.701Z,99.47
2023-04-05T22:27:11.868Z,94.85
2023-04-05T22:29:39.113Z,97.85
2023-04-05T22:32:06.328Z,93.45
2023-04-05T22:34:33.093Z,94.20
2023-04-05T22:37:00.443Z,93.93
2023-04-05T22:39:27.646Z,95.25
2023-04-05T22:41:54.709Z,94.15
2023-04-05T22:44:21.864Z,96.28
2023-04-05T22:46:48.482Z,95.53
2023-04-05T22:49:15.057Z,97.03
2023-04-05T22:51:41.653Z,95.80
2023-04-05T22:54:08.252Z,98.10
2023-04-05T22:56:34.946Z,96.00
2023-04-05T22:59:01.843Z,94.53
2023-04-05T23:01:28.530Z,95.82
2023-04-05T23:03:55.458Z,96.45
2023-04-05T23:06:22.103Z,96.03
2023-04-05T23:08:48.769Z,93.95
2023-04-05T23:11:15.413Z,93.85
2023-04-05T23:13:42.056Z,94.82
2023-04-05T23:16:08.856Z,94.00
2023-04-05T23:18:35.632Z,95.03
2023-04-05T23:21:02.234Z,94.03
2023-04-05T23:23:28.864Z,95.13
2023-04-05T23:25:56.453Z,93.97
2023-04-05T23:28:23.123Z,95.45
2023-04-05T23:30:49.796Z,95.47
2023-04-05T23:33:16.441Z,95.72
2023-04-05T23:35:43.277Z,95.65
2023-04-05T23:38:10.019Z,95.05
2023-04-05T23:40:36.670Z,97.43
2023-04-05T23:43:03.309Z,96.32
2023-04-05T23:45:29.948Z,96.00
2023-04-05T23:47:56.733Z,96.32
2023-04-05T23:50:23.438Z,96.38
2023-04-05T23:52:50.106Z,99.82
2023-04-05T23:55:16.923Z,96.68
2023-04-05T23:57:43.786Z,96.70
